sensor_id;sensor_type;location;lat;lon;timestamp;P1;durP1;ratioP1;P2;durP2;ratioP2
57483;SDS011;65488;43.212;0.096;2022-12-18T00:01:31;3.17;;;2.28;;
57483;SDS011;65488;43.212;0.096;2022-12-18T00:03:57;3.05;;;2.15;;
57483;SDS011;65488;43.212;0.096;2022-12-18T00:06:23;3.35;;;2.40;;
57483;SDS011;65488;43.212;0.096;2022-12-18T00:08:48;5.05;;;3.28;;
57483;SDS011;65488;43.212;0.096;2022-12-18T00:11:15;6.97;;;3.75;;
57483;SDS011;65488;43.212;0.096;2022-12-18T00:13:40;8.55;;;3.42;;
57483;SDS011;65488;43.212;0.096;2022-12-18T00:16:10;7.38;;;3.97;;
57483;SDS011;65488;43.212;0.096;2022-12-18T00:18:36;9.10;;;3.92;;
57483;SDS011;65488;43.212;0.096;2022-12-18T00:21:03;6.55;;;3.10;;
57483;SDS011;65488;43.212;0.096;2022-12-18T00:23:29;6.35;;;4.18;;
57483;SDS011;65488;43.212;0.096;2022-12-18T00:25:55;5.20;;;3.10;;
57483;SDS011;65488;43.212;0.096;2022-12-18T00:28:23;4.50;;;2.15;;
57483;SDS011;65488;43.212;0.096;2022-12-18T00:30:48;2.47;;;1.90;;
57483;SDS011;65488;43.212;0.096;2022-12-18T00:33:16;2.53;;;1.80;;
57483;SDS011;65488;43.212;0.096;2022-12-18T00:35:41;3.40;;;2.28;;
57483;SDS011;65488;43.212;0.096;2022-12-18T00:38:06;3.05;;;1.92;;
57483;SDS011;65488;43.212;0.096;2022-12-18T00:40:32;4.70;;;2.47;;
57483;SDS011;65488;43.212;0.096;2022-12-18T00:42:57;3.67;;;2.05;;
57483;SDS011;65488;43.212;0.096;2022-12-18T00:45:27;3.70;;;2.03;;
57483;SDS011;65488;43.212;0.096;2022-12-18T00:47:53;5.32;;;2.25;;
57483;SDS011;65488;43.212;0.096;2022-12-18T00:50:18;5.85;;;2.47;;
57483;SDS011;65488;43.212;0.096;2022-12-18T00:52:44;3.65;;;1.92;;
57483;SDS011;65488;43.212;0.096;2022-12-18T00:55:09;3.42;;;2.17;;
57483;SDS011;65488;43.212;0.096;2022-12-18T00:57:34;4.13;;;2.25;;
57483;SDS011;65488;43.212;0.096;2022-12-18T01:00:00;4.15;;;2.17;;
57483;SDS011;65488;43.212;0.096;2022-12-18T01:02:25;3.80;;;2.45;;
57483;SDS011;65488;43.212;0.096;2022-12-18T01:04:51;5.35;;;2.67;;
57483;SDS011;65488;43.212;0.096;2022-12-18T01:07:16;5.55;;;2.70;;
57483;SDS011;65488;43.212;0.096;2022-12-18T01:09:41;4.18;;;2.25;;
57483;SDS011;65488;43.212;0.096;2022-12-18T01:12:06;3.97;;;2.20;;
57483;SDS011;65488;43.212;0.096;2022-12-18T01:14:32;5.63;;;2.08;;
57483;SDS011;65488;43.212;0.096;2022-12-18T01:16:57;4.00;;;1.95;;
57483;SDS011;65488;43.212;0.096;2022-12-18T01:19:22;4.03;;;2.08;;
57483;SDS011;65488;43.212;0.096;2022-12-18T01:21:48;3.75;;;2.28;;
57483;SDS011;65488;43.212;0.096;2022-12-18T01:24:14;3.90;;;2.08;;
57483;SDS011;65488;43.212;0.096;2022-12-18T01:26:39;4.38;;;2.00;;
57483;SDS011;65488;43.212;0.096;2022-12-18T01:29:04;3.67;;;2.25;;
57483;SDS011;65488;43.212;0.096;2022-12-18T01:31:31;6.57;;;2.28;;
57483;SDS011;65488;43.212;0.096;2022-12-18T01:33:57;3.70;;;2.10;;
57483;SDS011;65488;43.212;0.096;2022-12-18T01:36:23;4.10;;;2.10;;
57483;SDS011;65488;43.212;0.096;2022-12-18T01:38:49;3.00;;;2.00;;
57483;SDS011;65488;43.212;0.096;2022-12-18T01:41:15;5.10;;;2.58;;
57483;SDS011;65488;43.212;0.096;2022-12-18T01:46:16;2.38;;;1.52;;
57483;SDS011;65488;43.212;0.096;2022-12-18T01:48:41;1.90;;;1.40;;
57483;SDS011;65488;43.212;0.096;2022-12-18T01:51:08;2.58;;;1.85;;
57483;SDS011;65488;43.212;0.096;2022-12-18T01:53:34;2.55;;;1.60;;
57483;SDS011;65488;43.212;0.096;2022-12-18T01:56:00;2.75;;;1.60;;
57483;SDS011;65488;43.212;0.096;2022-12-18T01:59:11;2.40;;;1.58;;
57483;SDS011;65488;43.212;0.096;2022-12-18T02:01:11;3.63;;;1.55;;
57483;SDS011;65488;43.212;0.096;2022-12-18T02:03:37;2.08;;;1.15;;
57483;SDS011;65488;43.212;0.096;2022-12-18T02:06:07;1.63;;;1.02;;
57483;SDS011;65488;43.212;0.096;2022-12-18T02:11:29;1.55;;;1.10;;
57483;SDS011;65488;43.212;0.096;2022-12-18T02:14:17;1.73;;;1.25;;
57483;SDS011;65488;43.212;0.096;2022-12-18T02:16:49;3.22;;;1.13;;
57483;SDS011;65488;43.212;0.096;2022-12-18T02:24:30;2.85;;;1.70;;
57483;SDS011;65488;43.212;0.096;2022-12-18T02:26:59;3.53;;;1.63;;
57483;SDS011;65488;43.212;0.096;2022-12-18T02:29:26;2.63;;;1.50;;
57483;SDS011;65488;43.212;0.096;2022-12-18T02:31:57;2.28;;;1.45;;
57483;SDS011;65488;43.212;0.096;2022-12-18T02:34:23;7.03;;;2.17;;
57483;SDS011;65488;43.212;0.096;2022-12-18T02:36:51;4.05;;;2.50;;
57483;SDS011;65488;43.212;0.096;2022-12-18T02:39:18;3.45;;;1.92;;
57483;SDS011;65488;43.212;0.096;2022-12-18T02:41:44;2.80;;;1.63;;
57483;SDS011;65488;43.212;0.096;2022-12-18T02:44:10;2.85;;;1.60;;
57483;SDS011;65488;43.212;0.096;2022-12-18T02:46:42;2.20;;;1.40;;
57483;SDS011;65488;43.212;0.096;2022-12-18T02:49:24;3.20;;;1.60;;
57483;SDS011;65488;43.212;0.096;2022-12-18T02:51:53;2.35;;;1.50;;
57483;SDS011;65488;43.212;0.096;2022-12-18T02:54:23;2.00;;;1.30;;
57483;SDS011;65488;43.212;0.096;2022-12-18T02:56:50;2.95;;;1.40;;
57483;SDS011;65488;43.212;0.096;2022-12-18T02:59:21;1.80;;;1.05;;
57483;SDS011;65488;43.212;0.096;2022-12-18T03:04:30;1.70;;;0.98;;
57483;SDS011;65488;43.212;0.096;2022-12-18T03:06:59;1.00;;;0.80;;
57483;SDS011;65488;43.212;0.096;2022-12-18T03:09:29;1.50;;;1.10;;
57483;SDS011;65488;43.212;0.096;2022-12-18T03:11:58;1.58;;;1.00;;
57483;SDS011;65488;43.212;0.096;2022-12-18T03:14:45;1.73;;;1.02;;
57483;SDS011;65488;43.212;0.096;2022-12-18T03:17:14;4.05;;;1.40;;
57483;SDS011;65488;43.212;0.096;2022-12-18T03:19:41;1.48;;;1.15;;
57483;SDS011;65488;43.212;0.096;2022-12-18T03:22:08;2.15;;;1.25;;
57483;SDS011;65488;43.212;0.096;2022-12-18T03:24:35;1.83;;;1.08;;
57483;SDS011;65488;43.212;0.096;2022-12-18T03:27:05;1.48;;;1.10;;
57483;SDS011;65488;43.212;0.096;2022-12-18T03:29:38;1.52;;;1.00;;
57483;SDS011;65488;43.212;0.096;2022-12-18T03:32:07;1.25;;;1.00;;
57483;SDS011;65488;43.212;0.096;2022-12-18T03:34:35;3.85;;;1.10;;
57483;SDS011;65488;43.212;0.096;2022-12-18T03:37:03;2.33;;;1.40;;
57483;SDS011;65488;43.212;0.096;2022-12-18T03:39:29;2.78;;;1.60;;
57483;SDS011;65488;43.212;0.096;2022-12-18T03:42:00;2.80;;;1.70;;
57483;SDS011;65488;43.212;0.096;2022-12-18T03:44:44;3.80;;;1.73;;
57483;SDS011;65488;43.212;0.096;2022-12-18T03:47:20;3.00;;;1.80;;
57483;SDS011;65488;43.212;0.096;2022-12-18T03:49:48;4.40;;;1.70;;
57483;SDS011;65488;43.212;0.096;2022-12-18T03:52:20;8.00;;;2.67;;
57483;SDS011;65488;43.212;0.096;2022-12-18T03:54:49;5.47;;;1.90;;
57483;SDS011;65488;43.212;0.096;2022-12-18T03:57:21;5.30;;;1.73;;
57483;SDS011;65488;43.212;0.096;2022-12-18T03:59:49;4.72;;;1.75;;
57483;SDS011;65488;43.212;0.096;2022-12-18T04:02:16;2.70;;;1.40;;
57483;SDS011;65488;43.212;0.096;2022-12-18T04:04:42;2.97;;;1.50;;
57483;SDS011;65488;43.212;0.096;2022-12-18T04:07:08;3.10;;;1.27;;
57483;SDS011;65488;43.212;0.096;2022-12-18T04:09:33;1.58;;;0.90;;
57483;SDS011;65488;43.212;0.096;2022-12-18T04:12:00;2.65;;;1.30;;
57483;SDS011;65488;43.212;0.096;2022-12-18T04:14:25;1.10;;;0.75;;
57483;SDS011;65488;43.212;0.096;2022-12-18T04:16:50;0.90;;;0.70;;
57483;SDS011;65488;43.212;0.096;2022-12-18T04:19:15;1.08;;;0.80;;
57483;SDS011;65488;43.212;0.096;2022-12-18T04:21:41;1.05;;;0.70;;
57483;SDS011;65488;43.212;0.096;2022-12-18T04:24:06;1.00;;;0.90;;
57483;SDS011;65488;43.212;0.096;2022-12-18T04:26:31;2.50;;;0.90;;
57483;SDS011;65488;43.212;0.096;2022-12-18T04:28:57;3.53;;;1.27;;
57483;SDS011;65488;43.212;0.096;2022-12-18T04:31:22;1.13;;;0.70;;
57483;SDS011;65488;43.212;0.096;2022-12-18T04:33:47;3.00;;;0.70;;
57483;SDS011;65488;43.212;0.096;2022-12-18T04:36:13;1.20;;;0.75;;
57483;SDS011;65488;43.212;0.096;2022-12-18T04:38:38;0.98;;;0.63;;
57483;SDS011;65488;43.212;0.096;2022-12-18T04:41:03;1.60;;;0.80;;
57483;SDS011;65488;43.212;0.096;2022-12-18T04:43:29;2.17;;;0.95;;
57483;SDS011;65488;43.212;0.096;2022-12-18T04:46:00;1.02;;;0.60;;
57483;SDS011;65488;43.212;0.096;2022-12-18T04:48:25;1.55;;;0.85;;
57483;SDS011;65488;43.212;0.096;2022-12-18T04:50:51;2.97;;;1.20;;
57483;SDS011;65488;43.212;0.096;2022-12-18T04:53:16;1.38;;;1.00;;
57483;SDS011;65488;43.212;0.096;2022-12-18T04:55:41;0.60;;;0.60;;
57483;SDS011;65488;43.212;0.096;2022-12-18T04:58:07;1.30;;;0.70;;
57483;SDS011;65488;43.212;0.096;2022-12-18T05:00:32;2.40;;;0.70;;
57483;SDS011;65488;43.212;0.096;2022-12-18T05:02:57;1.65;;;0.60;;
57483;SDS011;65488;43.212;0.096;2022-12-18T05:05:25;0.50;;;0.50;;
57483;SDS011;65488;43.212;0.096;2022-12-18T05:07:50;0.77;;;0.60;;
57483;SDS011;65488;43.212;0.096;2022-12-18T05:10:16;1.58;;;0.60;;
57483;SDS011;65488;43.212;0.096;2022-12-18T05:12:41;0.63;;;0.63;;
57483;SDS011;65488;43.212;0.096;2022-12-18T05:15:32;6.60;;;1.23;;
57483;SDS011;65488;43.212;0.096;2022-12-18T05:17:57;1.00;;;0.70;;
57483;SDS011;65488;43.212;0.096;2022-12-18T05:20:23;1.23;;;0.90;;
57483;SDS011;65488;43.212;0.096;2022-12-18T05:22:48;4.80;;;1.00;;
57483;SDS011;65488;43.212;0.096;2022-12-18T05:25:14;1.73;;;1.08;;
57483;SDS011;65488;43.212;0.096;2022-12-18T05:27:40;2.40;;;0.82;;
57483;SDS011;65488;43.212;0.096;2022-12-18T05:30:05;1.67;;;1.13;;
57483;SDS011;65488;43.212;0.096;2022-12-18T05:32:30;2.25;;;1.10;;
57483;SDS011;65488;43.212;0.096;2022-12-18T05:34:56;2.17;;;1.42;;
57483;SDS011;65488;43.212;0.096;2022-12-18T05:37:22;3.75;;;1.23;;
57483;SDS011;65488;43.212;0.096;2022-12-18T05:39:47;3.50;;;2.03;;
57483;SDS011;65488;43.212;0.096;2022-12-18T05:42:12;4.47;;;2.53;;
57483;SDS011;65488;43.212;0.096;2022-12-18T05:44:38;2.60;;;1.88;;
57483;SDS011;65488;43.212;0.096;2022-12-18T05:47:03;2.63;;;1.83;;
57483;SDS011;65488;43.212;0.096;2022-12-18T05:49:29;1.13;;;1.00;;
57483;SDS011;65488;43.212;0.096;2022-12-18T05:51:54;1.08;;;0.93;;
57483;SDS011;65488;43.212;0.096;2022-12-18T05:54:19;1.08;;;0.73;;
57483;SDS011;65488;43.212;0.096;2022-12-18T05:56:45;0.80;;;0.80;;
57483;SDS011;65488;43.212;0.096;2022-12-18T05:59:10;0.80;;;0.80;;
57483;SDS011;65488;43.212;0.096;2022-12-18T06:01:35;0.90;;;0.85;;
57483;SDS011;65488;43.212;0.096;2022-12-18T06:04:00;1.13;;;0.82;;
57483;SDS011;65488;43.212;0.096;2022-12-18T06:06:26;1.55;;;1.00;;
57483;SDS011;65488;43.212;0.096;2022-12-18T06:08:52;1.48;;;1.10;;
57483;SDS011;65488;43.212;0.096;2022-12-18T06:11:19;1.88;;;1.13;;
57483;SDS011;65488;43.212;0.096;2022-12-18T06:13:45;1.17;;;0.80;;
57483;SDS011;65488;43.212;0.096;2022-12-18T06:16:11;1.05;;;0.80;;
57483;SDS011;65488;43.212;0.096;2022-12-18T06:18:36;1.40;;;1.10;;
57483;SDS011;65488;43.212;0.096;2022-12-18T06:21:01;1.00;;;0.90;;
57483;SDS011;65488;43.212;0.096;2022-12-18T06:23:27;2.67;;;1.80;;
57483;SDS011;65488;43.212;0.096;2022-12-18T06:25:52;2.55;;;1.58;;
57483;SDS011;65488;43.212;0.096;2022-12-18T06:28:17;3.90;;;2.50;;
57483;SDS011;65488;43.212;0.096;2022-12-18T06:30:43;4.65;;;2.30;;
57483;SDS011;65488;43.212;0.096;2022-12-18T06:33:08;2.25;;;1.70;;
57483;SDS011;65488;43.212;0.096;2022-12-18T06:35:34;2.55;;;1.40;;
57483;SDS011;65488;43.212;0.096;2022-12-18T06:38:00;3.00;;;1.60;;
57483;SDS011;65488;43.212;0.096;2022-12-18T06:40:25;7.68;;;3.13;;
57483;SDS011;65488;43.212;0.096;2022-12-18T06:42:51;7.05;;;3.80;;
57483;SDS011;65488;43.212;0.096;2022-12-18T06:45:16;6.22;;;3.38;;
57483;SDS011;65488;43.212;0.096;2022-12-18T06:47:43;11.00;;;4.28;;
57483;SDS011;65488;43.212;0.096;2022-12-18T06:50:08;14.05;;;4.30;;
57483;SDS011;65488;43.212;0.096;2022-12-18T06:52:33;14.85;;;4.55;;
57483;SDS011;65488;43.212;0.096;2022-12-18T06:54:59;10.93;;;3.53;;
57483;SDS011;65488;43.212;0.096;2022-12-18T06:57:24;13.93;;;4.07;;
57483;SDS011;65488;43.212;0.096;2022-12-18T06:59:50;14.73;;;4.32;;
57483;SDS011;65488;43.212;0.096;2022-12-18T07:02:15;10.85;;;3.00;;
57483;SDS011;65488;43.212;0.096;2022-12-18T07:04:40;11.00;;;2.80;;
57483;SDS011;65488;43.212;0.096;2022-12-18T07:07:05;4.85;;;2.28;;
57483;SDS011;65488;43.212;0.096;2022-12-18T07:09:31;2.30;;;1.67;;
57483;SDS011;65488;43.212;0.096;2022-12-18T07:11:56;1.98;;;1.30;;
57483;SDS011;65488;43.212;0.096;2022-12-18T07:14:21;11.77;;;7.82;;
57483;SDS011;65488;43.212;0.096;2022-12-18T07:16:47;20.83;;;9.73;;
57483;SDS011;65488;43.212;0.096;2022-12-18T07:19:12;14.25;;;3.80;;
57483;SDS011;65488;43.212;0.096;2022-12-18T07:21:37;2.80;;;1.80;;
57483;SDS011;65488;43.212;0.096;2022-12-18T07:24:03;3.20;;;1.05;;
57483;SDS011;65488;43.212;0.096;2022-12-18T07:26:28;1.88;;;0.95;;
57483;SDS011;65488;43.212;0.096;2022-12-18T07:28:56;0.80;;;0.80;;
57483;SDS011;65488;43.212;0.096;2022-12-18T07:31:22;0.85;;;0.80;;
57483;SDS011;65488;43.212;0.096;2022-12-18T07:33:48;0.80;;;0.70;;
57483;SDS011;65488;43.212;0.096;2022-12-18T07:36:13;1.45;;;1.00;;
57483;SDS011;65488;43.212;0.096;2022-12-18T07:38:39;5.07;;;2.30;;
57483;SDS011;65488;43.212;0.096;2022-12-18T07:41:13;7.03;;;2.90;;
57483;SDS011;65488;43.212;0.096;2022-12-18T07:43:39;7.80;;;4.30;;
57483;SDS011;65488;43.212;0.096;2022-12-18T07:46:04;12.05;;;4.43;;
57483;SDS011;65488;43.212;0.096;2022-12-18T07:48:30;8.95;;;4.30;;
57483;SDS011;65488;43.212;0.096;2022-12-18T07:51:02;6.70;;;3.38;;
57483;SDS011;65488;43.212;0.096;2022-12-18T07:53:29;6.15;;;2.92;;
57483;SDS011;65488;43.212;0.096;2022-12-18T07:55:58;6.28;;;2.90;;
57483;SDS011;65488;43.212;0.096;2022-12-18T07:58:23;7.05;;;3.50;;
57483;SDS011;65488;43.212;0.096;2022-12-18T08:00:49;19.95;;;10.55;;
57483;SDS011;65488;43.212;0.096;2022-12-18T08:03:14;24.58;;;12.55;;
57483;SDS011;65488;43.212;0.096;2022-12-18T08:05:40;22.77;;;10.40;;
57483;SDS011;65488;43.212;0.096;2022-12-18T08:08:05;19.60;;;9.65;;
57483;SDS011;65488;43.212;0.096;2022-12-18T08:10:30;5.95;;;3.53;;
57483;SDS011;65488;43.212;0.096;2022-12-18T08:12:55;3.63;;;2.45;;
57483;SDS011;65488;43.212;0.096;2022-12-18T08:15:21;3.88;;;2.30;;
57483;SDS011;65488;43.212;0.096;2022-12-18T08:17:46;2.97;;;2.05;;
57483;SDS011;65488;43.212;0.096;2022-12-18T08:20:11;3.65;;;1.80;;
57483;SDS011;65488;43.212;0.096;2022-12-18T08:22:38;2.38;;;1.50;;
57483;SDS011;65488;43.212;0.096;2022-12-18T08:25:04;2.60;;;1.80;;
57483;SDS011;65488;43.212;0.096;2022-12-18T08:27:29;2.67;;;1.52;;
57483;SDS011;65488;43.212;0.096;2022-12-18T08:29:55;3.00;;;2.08;;
57483;SDS011;65488;43.212;0.096;2022-12-18T08:32:20;3.63;;;2.42;;
57483;SDS011;65488;43.212;0.096;2022-12-18T08:34:45;5.97;;;2.90;;
57483;SDS011;65488;43.212;0.096;2022-12-18T08:37:11;6.32;;;3.28;;
57483;SDS011;65488;43.212;0.096;2022-12-18T08:39:36;6.88;;;4.65;;
57483;SDS011;65488;43.212;0.096;2022-12-18T08:42:01;8.07;;;4.90;;
57483;SDS011;65488;43.212;0.096;2022-12-18T08:44:45;9.68;;;4.18;;
57483;SDS011;65488;43.212;0.096;2022-12-18T08:47:10;6.50;;;4.18;;
57483;SDS011;65488;43.212;0.096;2022-12-18T08:49:36;7.50;;;4.20;;
57483;SDS011;65488;43.212;0.096;2022-12-18T08:52:01;6.47;;;3.75;;
57483;SDS011;65488;43.212;0.096;2022-12-18T08:54:27;7.80;;;3.58;;
57483;SDS011;65488;43.212;0.096;2022-12-18T08:56:53;5.63;;;2.80;;
57483;SDS011;65488;43.212;0.096;2022-12-18T08:59:18;5.55;;;3.58;;
57483;SDS011;65488;43.212;0.096;2022-12-18T09:01:44;9.02;;;3.38;;
57483;SDS011;65488;43.212;0.096;2022-12-18T09:04:10;4.28;;;3.35;;
57483;SDS011;65488;43.212;0.096;2022-12-18T09:06:35;5.80;;;2.80;;
57483;SDS011;65488;43.212;0.096;2022-12-18T09:09:01;3.35;;;2.60;;
57483;SDS011;65488;43.212;0.096;2022-12-18T09:11:26;3.28;;;2.33;;
57483;SDS011;65488;43.212;0.096;2022-12-18T09:13:52;5.63;;;2.83;;
57483;SDS011;65488;43.212;0.096;2022-12-18T09:16:19;6.28;;;2.80;;
57483;SDS011;65488;43.212;0.096;2022-12-18T09:18:44;3.83;;;3.05;;
57483;SDS011;65488;43.212;0.096;2022-12-18T09:21:10;4.00;;;2.50;;
57483;SDS011;65488;43.212;0.096;2022-12-18T09:23:36;3.80;;;2.95;;
57483;SDS011;65488;43.212;0.096;2022-12-18T09:26:01;8.25;;;5.95;;
57483;SDS011;65488;43.212;0.096;2022-12-18T09:28:27;8.35;;;4.50;;
57483;SDS011;65488;43.212;0.096;2022-12-18T09:30:52;5.53;;;3.63;;
57483;SDS011;65488;43.212;0.096;2022-12-18T09:33:19;6.10;;;3.15;;
57483;SDS011;65488;43.212;0.096;2022-12-18T09:35:44;6.55;;;3.08;;
57483;SDS011;65488;43.212;0.096;2022-12-18T09:38:14;5.60;;;3.83;;
57483;SDS011;65488;43.212;0.096;2022-12-18T09:40:41;7.30;;;4.60;;
57483;SDS011;65488;43.212;0.096;2022-12-18T09:43:09;5.72;;;4.15;;
57483;SDS011;65488;43.212;0.096;2022-12-18T09:45:40;5.57;;;4.20;;
57483;SDS011;65488;43.212;0.096;2022-12-18T09:48:10;6.65;;;4.88;;
57483;SDS011;65488;43.212;0.096;2022-12-18T09:50:39;7.22;;;4.70;;
57483;SDS011;65488;43.212;0.096;2022-12-18T09:53:22;5.70;;;3.78;;
57483;SDS011;65488;43.212;0.096;2022-12-18T09:55:50;4.93;;;3.15;;
57483;SDS011;65488;43.212;0.096;2022-12-18T10:01:16;4.53;;;3.35;;
57483;SDS011;65488;43.212;0.096;2022-12-18T10:03:43;7.03;;;3.40;;
57483;SDS011;65488;43.212;0.096;2022-12-18T10:06:13;4.97;;;3.28;;
57483;SDS011;65488;43.212;0.096;2022-12-18T10:13:43;5.03;;;2.90;;
57483;SDS011;65488;43.212;0.096;2022-12-18T10:21:20;4.57;;;2.90;;
57483;SDS011;65488;43.212;0.096;2022-12-18T10:26:14;4.25;;;3.35;;
57483;SDS011;65488;43.212;0.096;2022-12-18T10:28:40;6.20;;;4.78;;
57483;SDS011;65488;43.212;0.096;2022-12-18T10:31:06;5.07;;;3.67;;
57483;SDS011;65488;43.212;0.096;2022-12-18T10:33:33;7.75;;;4.07;;
57483;SDS011;65488;43.212;0.096;2022-12-18T10:35:58;5.55;;;3.95;;
57483;SDS011;65488;43.212;0.096;2022-12-18T10:38:28;4.80;;;3.83;;
57483;SDS011;65488;43.212;0.096;2022-12-18T10:43:20;4.78;;;3.65;;
57483;SDS011;65488;43.212;0.096;2022-12-18T10:45:57;5.88;;;3.45;;
57483;SDS011;65488;43.212;0.096;2022-12-18T10:48:23;6.65;;;3.45;;
57483;SDS011;65488;43.212;0.096;2022-12-18T10:50:49;3.00;;;2.70;;
57483;SDS011;65488;43.212;0.096;2022-12-18T10:53:22;2.45;;;2.25;;
57483;SDS011;65488;43.212;0.096;2022-12-18T10:55:48;5.22;;;1.92;;
57483;SDS011;65488;43.212;0.096;2022-12-18T11:03:36;1.23;;;0.80;;
57483;SDS011;65488;43.212;0.096;2022-12-18T11:06:03;0.95;;;0.70;;
57483;SDS011;65488;43.212;0.096;2022-12-18T11:08:29;1.08;;;0.70;;
57483;SDS011;65488;43.212;0.096;2022-12-18T11:10:54;1.42;;;0.45;;
57483;SDS011;65488;43.212;0.096;2022-12-18T11:13:20;2.70;;;0.80;;
57483;SDS011;65488;43.212;0.096;2022-12-18T11:15:46;1.15;;;0.70;;
57483;SDS011;65488;43.212;0.096;2022-12-18T11:20:44;2.40;;;0.85;;
57483;SDS011;65488;43.212;0.096;2022-12-18T11:23:15;1.80;;;0.80;;
57483;SDS011;65488;43.212;0.096;2022-12-18T11:25:41;5.88;;;0.80;;
57483;SDS011;65488;43.212;0.096;2022-12-18T11:28:25;1.60;;;0.68;;
57483;SDS011;65488;43.212;0.096;2022-12-18T11:31:08;1.48;;;0.73;;
57483;SDS011;65488;43.212;0.096;2022-12-18T11:33:34;0.50;;;0.50;;
57483;SDS011;65488;43.212;0.096;2022-12-18T11:36:00;1.77;;;1.33;;
57483;SDS011;65488;43.212;0.096;2022-12-18T11:38:30;0.88;;;0.60;;
57483;SDS011;65488;43.212;0.096;2022-12-18T11:41:57;2.40;;;0.57;;
57483;SDS011;65488;43.212;0.096;2022-12-18T11:44:13;1.40;;;0.50;;
57483;SDS011;65488;43.212;0.096;2022-12-18T11:46:43;1.52;;;0.55;;
57483;SDS011;65488;43.212;0.096;2022-12-18T11:49:15;0.43;;;0.43;;
57483;SDS011;65488;43.212;0.096;2022-12-18T11:52:04;1.08;;;0.50;;
57483;SDS011;65488;43.212;0.096;2022-12-18T11:54:27;1.35;;;0.65;;
57483;SDS011;65488;43.212;0.096;2022-12-18T11:56:58;1.25;;;0.55;;
57483;SDS011;65488;43.212;0.096;2022-12-18T12:02:19;1.30;;;1.00;;
57483;SDS011;65488;43.212;0.096;2022-12-18T12:22:48;1.25;;;1.10;;
57483;SDS011;65488;43.212;0.096;2022-12-18T12:30:53;2.22;;;1.20;;
57483;SDS011;65488;43.212;0.096;2022-12-18T12:33:26;1.10;;;1.00;;
57483;SDS011;65488;43.212;0.096;2022-12-18T12:35:56;2.20;;;1.77;;
57483;SDS011;65488;43.212;0.096;2022-12-18T12:38:29;2.38;;;1.40;;
57483;SDS011;65488;43.212;0.096;2022-12-18T12:41:00;1.73;;;1.40;;
57483;SDS011;65488;43.212;0.096;2022-12-18T12:43:30;1.92;;;1.40;;
57483;SDS011;65488;43.212;0.096;2022-12-18T12:46:03;2.50;;;1.40;;
57483;SDS011;65488;43.212;0.096;2022-12-18T12:48:40;2.45;;;1.88;;
57483;SDS011;65488;43.212;0.096;2022-12-18T12:51:09;2.05;;;1.45;;
57483;SDS011;65488;43.212;0.096;2022-12-18T12:53:36;2.70;;;1.63;;
57483;SDS011;65488;43.212;0.096;2022-12-18T12:56:03;3.00;;;1.73;;
57483;SDS011;65488;43.212;0.096;2022-12-18T13:01:13;3.30;;;1.90;;
57483;SDS011;65488;43.212;0.096;2022-12-18T13:06:33;2.17;;;1.77;;
57483;SDS011;65488;43.212;0.096;2022-12-18T13:09:01;1.55;;;1.45;;
57483;SDS011;65488;43.212;0.096;2022-12-18T13:11:45;3.75;;;1.58;;
57483;SDS011;65488;43.212;0.096;2022-12-18T13:14:31;3.95;;;2.00;;
57483;SDS011;65488;43.212;0.096;2022-12-18T13:19:40;3.72;;;2.28;;
57483;SDS011;65488;43.212;0.096;2022-12-18T13:22:12;2.83;;;1.77;;
57483;SDS011;65488;43.212;0.096;2022-12-18T13:24:45;3.05;;;2.10;;
57483;SDS011;65488;43.212;0.096;2022-12-18T13:29:55;2.38;;;2.00;;
57483;SDS011;65488;43.212;0.096;2022-12-18T13:32:22;5.10;;;2.25;;
57483;SDS011;65488;43.212;0.096;2022-12-18T13:34:47;4.85;;;2.40;;
57483;SDS011;65488;43.212;0.096;2022-12-18T13:39:56;3.05;;;1.80;;
57483;SDS011;65488;43.212;0.096;2022-12-18T13:42:38;4.03;;;2.50;;
57483;SDS011;65488;43.212;0.096;2022-12-18T13:45:35;5.63;;;2.05;;
57483;SDS011;65488;43.212;0.096;2022-12-18T13:48:01;2.47;;;2.10;;
57483;SDS011;65488;43.212;0.096;2022-12-18T13:50:26;2.80;;;1.90;;
57483;SDS011;65488;43.212;0.096;2022-12-18T13:52:51;3.63;;;2.25;;
57483;SDS011;65488;43.212;0.096;2022-12-18T13:55:18;2.70;;;2.10;;
57483;SDS011;65488;43.212;0.096;2022-12-18T13:57:43;4.35;;;1.88;;
57483;SDS011;65488;43.212;0.096;2022-12-18T14:02:44;2.80;;;2.03;;
57483;SDS011;65488;43.212;0.096;2022-12-18T14:05:21;3.03;;;2.15;;
57483;SDS011;65488;43.212;0.096;2022-12-18T14:07:46;6.40;;;3.72;;
57483;SDS011;65488;43.212;0.096;2022-12-18T14:10:12;7.82;;;3.05;;
57483;SDS011;65488;43.212;0.096;2022-12-18T14:12:39;6.75;;;3.00;;
57483;SDS011;65488;43.212;0.096;2022-12-18T14:17:50;3.35;;;2.50;;
57483;SDS011;65488;43.212;0.096;2022-12-18T14:20:16;5.53;;;3.10;;
57483;SDS011;65488;43.212;0.096;2022-12-18T14:22:42;4.18;;;2.95;;
57483;SDS011;65488;43.212;0.096;2022-12-18T14:30:28;3.13;;;2.55;;
57483;SDS011;65488;43.212;0.096;2022-12-18T14:33:04;3.88;;;2.70;;
57483;SDS011;65488;43.212;0.096;2022-12-18T14:35:30;4.18;;;3.22;;
57483;SDS011;65488;43.212;0.096;2022-12-18T14:40:39;2.85;;;2.20;;
57483;SDS011;65488;43.212;0.096;2022-12-18T14:43:05;2.72;;;2.22;;
57483;SDS011;65488;43.212;0.096;2022-12-18T14:45:37;2.83;;;2.10;;
57483;SDS011;65488;43.212;0.096;2022-12-18T14:48:06;4.10;;;2.20;;
57483;SDS011;65488;43.212;0.096;2022-12-18T14:50:31;2.45;;;2.00;;
57483;SDS011;65488;43.212;0.096;2022-12-18T14:52:57;4.20;;;2.47;;
57483;SDS011;65488;43.212;0.096;2022-12-18T14:55:22;3.03;;;2.30;;
57483;SDS011;65488;43.212;0.096;2022-12-18T14:57:51;2.47;;;2.00;;
57483;SDS011;65488;43.212;0.096;2022-12-18T15:00:18;4.90;;;2.22;;
57483;SDS011;65488;43.212;0.096;2022-12-18T15:02:48;2.97;;;1.98;;
57483;SDS011;65488;43.212;0.096;2022-12-18T15:05:20;3.38;;;2.45;;
57483;SDS011;65488;43.212;0.096;2022-12-18T15:07:47;2.70;;;2.30;;
57483;SDS011;65488;43.212;0.096;2022-12-18T15:10:19;5.18;;;2.40;;
57483;SDS011;65488;43.212;0.096;2022-12-18T15:13:07;7.90;;;2.80;;
57483;SDS011;65488;43.212;0.096;2022-12-18T15:18:11;2.13;;;1.90;;
57483;SDS011;65488;43.212;0.096;2022-12-18T15:20:48;8.30;;;2.70;;
57483;SDS011;65488;43.212;0.096;2022-12-18T15:23:15;9.00;;;4.80;;
57483;SDS011;65488;43.212;0.096;2022-12-18T15:25:41;6.53;;;3.20;;
57483;SDS011;65488;43.212;0.096;2022-12-18T15:28:17;4.00;;;2.88;;
57483;SDS011;65488;43.212;0.096;2022-12-18T15:33:34;5.65;;;2.65;;
57483;SDS011;65488;43.212;0.096;2022-12-18T15:36:00;4.47;;;2.50;;
57483;SDS011;65488;43.212;0.096;2022-12-18T15:38:26;6.70;;;3.47;;
57483;SDS011;65488;43.212;0.096;2022-12-18T15:40:52;7.85;;;3.78;;
57483;SDS011;65488;43.212;0.096;2022-12-18T15:43:17;8.48;;;4.70;;
57483;SDS011;65488;43.212;0.096;2022-12-18T15:45:59;7.10;;;4.47;;
57483;SDS011;65488;43.212;0.096;2022-12-18T15:48:24;5.00;;;3.60;;
57483;SDS011;65488;43.212;0.096;2022-12-18T15:50:50;6.30;;;4.13;;
57483;SDS011;65488;43.212;0.096;2022-12-18T15:53:16;6.00;;;4.03;;
57483;SDS011;65488;43.212;0.096;2022-12-18T15:55:41;6.65;;;3.88;;
57483;SDS011;65488;43.212;0.096;2022-12-18T15:58:25;10.32;;;6.30;;
57483;SDS011;65488;43.212;0.096;2022-12-18T16:00:50;13.18;;;9.35;;
57483;SDS011;65488;43.212;0.096;2022-12-18T16:03:16;9.55;;;6.78;;
57483;SDS011;65488;43.212;0.096;2022-12-18T16:05:41;11.23;;;6.82;;
57483;SDS011;65488;43.212;0.096;2022-12-18T16:08:06;10.65;;;7.88;;
57483;SDS011;65488;43.212;0.096;2022-12-18T16:10:32;10.63;;;5.57;;
57483;SDS011;65488;43.212;0.096;2022-12-18T16:12:57;10.10;;;6.13;;
57483;SDS011;65488;43.212;0.096;2022-12-18T16:15:22;8.32;;;5.53;;
57483;SDS011;65488;43.212;0.096;2022-12-18T16:17:48;9.20;;;5.68;;
57483;SDS011;65488;43.212;0.096;2022-12-18T16:20:17;7.82;;;5.03;;
57483;SDS011;65488;43.212;0.096;2022-12-18T16:22:43;9.07;;;6.10;;
57483;SDS011;65488;43.212;0.096;2022-12-18T16:25:22;12.27;;;8.25;;
57483;SDS011;65488;43.212;0.096;2022-12-18T16:27:47;16.25;;;10.95;;